Time;durP1;ratioP1;P1;durP2;ratioP2;P2;SDS_P1;SDS_P2;PMS_P1;PMS_P2;Temp;Humidity;BMP_temperature;BMP_pressure;BME280_temperature;BME280_humidity;BME280_pressure;Samples;Min_cycle;Max_cycle;Signal;HPM_P1;HPM_P2
2024/04/15 00:04:54;;;;;;;6.70;2.60;;;;;;;15.77;65.88;98903.79;232475;203;136569;-62
2024/04/15 00:09:57;;;;;;;8.10;2.60;;;;;;;15.80;64.97;98900.27;232557;206;137214;-62
2024/04/15 00:15:01;;;;;;;7.30;2.70;;;;;;;15.81;65.59;98892.84;232494;203;151635;-63
2024/04/15 00:20:04;;;;;;;6.40;2.20;;;;;;;15.80;65.43;98889.27;232556;203;136772;-62
2024/04/15 00:25:07;;;;;;;7.70;2.80;;;;;;;15.77;65.28;98881.48;232548;202;136681;-62
2024/04/15 00:30:10;;;;;;;5.50;2.60;;;;;;;15.78;65.67;98865.09;232520;206;151940;-62
2024/04/15 00:35:16;;;;;;;6.60;2.60;;;;;;;15.74;65.93;98862.52;232587;203;137383;-61
2024/04/15 00:40:19;;;;;;;5.80;2.70;;;;;;;15.68;65.40;98850.75;232465;206;137077;-62
2024/04/15 00:45:30;;;;;;;7.10;2.90;;;;;;;15.66;66.07;98833.55;232468;202;151148;-62
2024/04/15 00:50:39;;;;;;;7.70;2.80;;;;;;;15.64;66.14;98826.39;232538;203;138292;-61
2024/04/15 00:55:46;;;;;;;12.40;3.00;;;;;;;15.61;66.58;98824.31;232618;206;136429;-61
2024/04/15 01:00:52;;;;;;;5.40;2.50;;;;;;;15.60;66.60;98817.21;232514;202;151915;-62
2024/04/15 01:05:55;;;;;;;;;;;;;;;15.59;66.70;98816.20;232708;203;137838;-60
2024/04/15 01:10:58;;;;;;;5.80;2.90;;;;;;;15.63;66.73;98801.60;232451;206;136587;-62
2024/04/15 01:16:03;;;;;;;12.80;3.50;;;;;;;15.61;67.30;98792.07;232580;202;151359;-62
2024/04/15 01:21:08;;;;;;;27.60;3.70;;;;;;;15.56;67.35;98784.63;232496;202;140625;-62
2024/04/15 01:26:11;;;;;;;28.00;4.70;;;;;;;15.49;67.42;98771.00;232543;203;136975;-62
2024/04/15 01:31:13;;;;;;;36.00;4.60;;;;;;;15.44;67.57;98768.58;232524;203;151432;-61
2024/04/15 01:36:16;;;;;;;53.00;5.80;;;;;;;15.36;67.56;98764.75;232494;200;137838;-61
2024/04/15 01:41:20;;;;;;;18.90;4.20;;;;;;;15.33;67.69;98760.56;232691;206;137071;-62
2024/04/15 01:46:23;;;;;;;19.90;3.80;;;;;;;15.31;66.68;98757.33;232530;198;151483;-62
2024/04/15 01:51:27;;;;;;;14.20;3.70;;;;;;;15.32;67.28;98741.50;232461;202;138060;-61
2024/04/15 01:56:30;;;;;;;11.20;3.20;;;;;;;15.29;66.79;98719.45;232577;206;137330;-61
2024/04/15 02:01:35;;;;;;;21.30;4.80;;;;;;;15.29;65.61;98703.87;232542;206;152669;-61
2024/04/15 02:06:38;;;;;;;13.10;3.40;;;;;;;15.27;65.87;98699.39;232556;206;138100;-62
2024/04/15 02:11:42;;;;;;;9.60;2.90;;;;;;;15.19;66.04;98686.69;232646;200;136996;-61
2024/04/15 02:16:44;;;;;;;11.40;2.60;;;;;;;15.15;66.01;98678.34;232484;202;151343;-62
2024/04/15 02:21:47;;;;;;;9.90;3.20;;;;;;;15.13;66.20;98669.33;232454;203;138429;-61
2024/04/15 02:26:50;;;;;;;10.10;2.80;;;;;;;15.18;66.26;98662.15;232581;203;136552;-60
2024/04/15 02:31:53;;;;;;;9.70;2.80;;;;;;;15.18;66.44;98662.11;232495;203;151289;-60
2024/04/15 02:36:56;;;;;;;11.90;2.80;;;;;;;15.13;66.34;98651.13;232464;203;136723;-61
2024/04/15 02:41:59;;;;;;;8.40;3.10;;;;;;;15.08;66.48;98637.09;232633;206;137426;-61
2024/04/15 02:47:02;;;;;;;8.50;3.10;;;;;;;15.03;66.87;98627.73;232384;206;152632;-60
2024/04/15 02:52:05;;;;;;;8.20;3.00;;;;;;;15.01;66.91;98609.48;232480;203;137372;-61
2024/04/15 02:57:08;;;;;;;7.60;3.20;;;;;;;14.98;67.32;98601.36;232529;202;138959;-62
2024/04/15 03:02:11;;;;;;;7.10;2.80;;;;;;;14.96;67.52;98579.52;232486;202;151773;-62
2024/04/15 03:07:14;;;;;;;8.80;3.00;;;;;;;14.92;67.97;98573.14;232459;203;137282;-61
2024/04/15 03:12:17;;;;;;;10.70;3.20;;;;;;;14.90;68.08;98563.02;232522;202;136728;-62
2024/04/15 03:17:20;;;;;;;10.90;3.70;;;;;;;14.89;68.02;98557.76;232619;202;151287;-62
2024/04/15 03:22:23;;;;;;;11.20;4.20;;;;;;;14.91;68.19;98549.55;232442;206;137015;-62
2024/04/15 03:27:26;;;;;;;12.40;3.80;;;;;;;14.97;67.94;98544.23;232614;206;137129;-62
2024/04/15 03:32:29;;;;;;;12.10;4.10;;;;;;;14.97;67.86;98532.67;232496;206;151451;-61
2024/04/15 03:37:32;;;;;;;11.10;4.50;;;;;;;14.94;68.01;98523.10;232467;206;137642;-63
2024/04/15 03:42:35;;;;;;;10.40;4.70;;;;;;;14.92;68.13;98508.65;232480;202;137322;-61
2024/04/15 03:47:39;;;;;;;12.30;5.30;;;;;;;14.88;68.25;98494.10;232608;202;151678;-61
2024/04/15 03:52:42;;;;;;;13.00;4.90;;;;;;;14.86;68.43;98487.72;232460;207;136623;-61
2024/04/15 03:57:45;;;;;;;16.50;5.30;;;;;;;14.81;68.61;98481.01;232505;206;137555;-62
2024/04/15 04:02:48;;;;;;;8.80;4.70;;;;;;;14.75;68.69;98473.73;232303;201;151965;-61
2024/04/15 04:07:55;;;;;;;191.70;154.50;;;;;;;15.06;70.87;98460.02;232451;207;138214;-60
2024/04/15 04:12:58;;;;;;;13.50;5.70;;;;;;;15.15;68.53;98452.59;232450;207;137616;-61
2024/04/15 04:18:01;;;;;;;93.90;79.60;;;;;;;15.21;68.21;98444.17;232661;202;153135;-60
2024/04/15 04:23:04;;;;;;;20.50;10.00;;;;;;;15.52;71.59;98439.11;232538;203;137406;-44
2024/04/15 04:28:07;;;;;;;344.10;295.50;;;;;;;16.59;70.24;98421.83;232363;204;137919;-56
2024/04/15 04:33:10;;;;;;;28.90;15.30;;;;;;;16.85;65.23;98404.41;232452;203;151332;-56
2024/04/15 04:38:13;;;;;;;22.30;14.70;;;;;;;16.56;64.26;98399.33;232486;204;136726;-53
2024/04/15 04:43:16;;;;;;;15.20;8.10;;;;;;;16.61;65.15;98411.98;232498;207;138265;-54
2024/04/15 04:48:22;;;;;;;10.70;3.90;;;;;;;16.81;64.28;98424.68;232325;203;151785;-53
2024/04/15 04:53:25;;;;;;;152.20;110.70;;;;;;;16.85;62.78;98463.73;232577;203;137675;-55
2024/04/15 04:58:28;;;;;;;23.00;13.60;;;;;;;16.64;62.25;98455.48;232281;204;137988;-60
2024/04/15 05:03:31;;;;;;;10.20;3.60;;;;;;;16.53;62.37;98441.23;232321;200;151211;-59
2024/04/15 05:08:34;;;;;;;14.20;3.80;;;;;;;16.15;62.76;98412.20;232243;204;140472;-60
2024/04/15 05:13:38;;;;;;;15.50;3.80;;;;;;;15.83;64.08;98455.92;232329;207;137841;-60
2024/04/15 05:18:43;;;;;;;13.40;4.10;;;;;;;15.55;65.45;98463.30;232374;207;153671;-57
2024/04/15 05:23:47;;;;;;;9.60;3.30;;;;;;;15.33;66.39;98472.97;232469;200;139198;-58
2024/04/15 05:28:50;;;;;;;11.20;4.00;;;;;;;15.22;67.15;98471.25;232315;207;136870;-57
2024/04/15 05:33:55;;;;;;;21.50;14.60;;;;;;;15.14;67.35;98474.14;232280;204;151122;-58
2024/04/15 05:38:58;;;;;;;12.00;3.90;;;;;;;15.28;67.75;98463.73;232210;207;137151;-58
2024/04/15 05:44:01;;;;;;;13.20;4.00;;;;;;;15.44;67.19;98451.27;232326;204;137772;-57
2024/04/15 05:49:04;;;;;;;11.60;3.90;;;;;;;15.26;67.96;98441.56;232423;207;151396;-56
2024/04/15 05:54:07;;;;;;;10.60;4.10;;;;;;;15.11;68.11;98434.05;232427;200;138225;-58
2024/04/15 05:59:10;;;;;;;11.70;3.70;;;;;;;15.09;67.77;98422.08;232542;204;138105;-57
2024/04/15 06:04:13;;;;;;;14.00;3.90;;;;;;;15.03;66.95;98414.42;232223;207;152039;-56
2024/04/15 06:09:16;;;;;;;9.40;3.30;;;;;;;14.87;67.83;98427.08;232329;207;138818;-57
2024/04/15 06:14:21;;;;;;;10.40;3.60;;;;;;;14.85;68.41;98427.60;232369;207;137502;-56
2024/04/15 06:19:24;;;;;;;14.80;3.30;;;;;;;14.87;68.35;98433.99;232376;207;151085;-58
2024/04/15 06:24:27;;;;;;;13.30;4.00;;;;;;;14.78;68.60;98432.86;232437;206;138339;-57
2024/04/15 06:29:30;;;;;;;12.00;3.80;;;;;;;14.70;69.43;98413.45;232629;203;138575;-58
2024/04/15 06:34:33;;;;;;;12.80;4.10;;;;;;;14.65;69.62;98399.03;232397;199;152018;-58
2024/04/15 06:39:36;;;;;;;11.50;3.40;;;;;;;14.71;69.46;98395.64;232396;207;138453;-56
2024/04/15 06:44:39;;;;;;;13.00;3.40;;;;;;;14.68;68.99;98422.52;232395;207;137155;-57
2024/04/15 06:49:42;;;;;;;10.30;3.50;;;;;;;14.77;68.96;98409.61;232406;204;164035;-57
2024/04/15 06:54:45;;;;;;;12.90;4.70;;;;;;;14.89;69.76;98427.95;232233;204;137870;-57
2024/04/15 06:59:48;;;;;;;10.50;3.20;;;;;;;14.87;69.01;98453.11;232500;203;138291;-57
2024/04/15 07:04:52;;;;;;;4.70;2.70;;;;;;;14.77;68.96;98458.70;232456;203;151259;-56
2024/04/15 07:09:55;;;;;;;7.40;2.70;;;;;;;14.75;68.87;98484.20;232496;203;138063;-55
2024/04/15 07:14:59;;;;;;;6.00;2.80;;;;;;;14.66;68.78;98493.72;232372;204;137895;-57
2024/04/15 07:20:03;;;;;;;5.90;2.40;;;;;;;14.53;68.87;98453.69;232359;207;152052;-57
2024/04/15 07:25:06;;;;;;;4.50;2.10;;;;;;;14.42;69.20;98444.60;232387;207;137147;-57
2024/04/15 07:30:09;;;;;;;5.80;2.60;;;;;;;14.39;69.21;98430.39;232436;200;136839;-59
2024/04/15 07:35:13;;;;;;;6.80;2.00;;;;;;;14.43;69.77;98418.06;232469;206;151236;-58
2024/04/15 07:40:16;;;;;;;7.70;3.10;;;;;;;14.55;70.37;98410.86;232353;204;136919;-58
2024/04/15 07:45:19;;;;;;;6.70;2.30;;;;;;;14.66;69.91;98397.66;232415;204;136789;-57
2024/04/15 07:50:23;;;;;;;6.50;2.20;;;;;;;14.71;69.37;98405.49;232373;207;152071;-58
2024/04/15 07:55:26;;;;;;;241.70;178.10;;;;;;;14.67;69.47;98411.52;232440;203;137471;-58
2024/04/15 08:00:29;;;;;;;15.10;8.70;;;;;;;14.67;69.67;98418.67;232329;200;137357;-57
2024/04/15 08:05:32;;;;;;;6.80;2.40;;;;;;;14.69;69.64;98421.73;232571;204;151652;-58
2024/04/15 08:10:36;;;;;;;8.20;2.40;;;;;;;14.66;69.94;98407.85;232321;204;137761;-59
2024/04/15 08:15:42;;;;;;;9.30;2.50;;;;;;;14.66;70.04;98394.43;232033;204;138173;-58
2024/04/15 08:20:53;;;;;;;5.10;2.70;;;;;;;14.68;70.09;98427.70;232338;204;153684;-58
2024/04/15 08:25:57;;;;;;;75.80;60.80;;;;;;;14.71;70.20;98418.38;232267;207;137393;-58
2024/04/15 08:31:00;;;;;;;5.30;3.20;;;;;;;14.72;70.08;98441.65;232243;204;141838;-59
2024/04/15 08:36:03;;;;;;;5.00;2.60;;;;;;;14.71;70.11;98429.05;232467;204;151844;-59
2024/04/15 08:41:13;;;;;;;6.80;2.80;;;;;;;14.64;69.79;98390.04;232495;207;153287;-57
2024/04/15 08:46:23;;;;;;;85.00;64.60;;;;;;;14.57;69.88;98393.14;232373;203;140457;-58
2024/04/15 08:51:26;;;;;;;8.80;3.40;;;;;;;14.60;69.68;98397.52;232359;204;151479;-58
2024/04/15 08:56:31;;;;;;;6.20;2.70;;;;;;;14.58;69.28;98394.80;232332;204;136655;-57
2024/04/15 09:01:35;;;;;;;5.90;2.90;;;;;;;14.54;68.78;98409.14;232508;203;137646;-59
2024/04/15 09:06:38;;;;;;;5.70;2.50;;;;;;;14.45;68.18;98411.65;232394;204;151812;-58
2024/04/15 09:11:42;;;;;;;6.70;3.20;;;;;;;14.40;68.07;98396.58;232606;207;138544;-58
2024/04/15 09:16:46;;;;;;;8.30;3.20;;;;;;;14.37;67.97;98381.17;232378;204;137381;-58
2024/04/15 09:21:49;;;;;;;185.50;136.60;;;;;;;14.30;67.88;98399.27;232467;207;151777;-57
2024/04/15 09:26:52;;;;;;;11.60;7.20;;;;;;;14.34;67.57;98397.30;232250;204;137414;-58
2024/04/15 09:31:56;;;;;;;7.80;3.30;;;;;;;14.29;66.87;98390.44;232173;206;137038;-58
2024/04/15 09:36:59;;;;;;;153.90;120.70;;;;;;;14.25;67.05;98389.73;232266;204;152031;-58
2024/04/15 09:42:05;;;;;;;7.60;3.60;;;;;;;14.19;66.88;98420.70;232432;204;138084;-58
2024/04/15 09:47:10;;;;;;;4.70;2.70;;;;;;;14.03;66.15;98438.52;232334;205;137112;-57
2024/04/15 09:52:22;;;;;;;4.30;2.70;;;;;;;13.94;65.99;98442.17;232280;204;152036;-58
2024/04/15 09:57:27;;;;;;;4.30;2.20;;;;;;;13.82;66.02;98444.99;232269;204;138784;-58
2024/04/15 10:02:35;;;;;;;9.60;2.30;;;;;;;13.66;66.26;98449.49;232327;204;137773;-57
2024/04/15 10:07:45;;;;;;;5.80;2.70;;;;;;;13.60;67.11;98437.69;232179;200;151576;-57
2024/04/15 10:12:50;;;;;;;6.70;2.60;;;;;;;13.65;67.42;98427.85;232321;204;138111;-58
2024/04/15 10:17:57;;;;;;;10.30;3.20;;;;;;;13.71;67.39;98410.77;232474;203;136576;-58
2024/04/15 10:23:10;;;;;;;7.90;2.80;;;;;;;13.80;67.77;98391.96;232299;205;151274;-57
2024/04/15 10:28:15;;;;;;;7.30;2.90;;;;;;;13.91;67.82;98380.84;232243;204;138365;-57
2024/04/15 10:33:20;;;;;;;14.00;5.60;;;;;;;14.01;67.56;98381.81;232225;204;137545;-57
2024/04/15 10:38:29;;;;;;;8.20;3.00;;;;;;;14.05;67.18;98368.63;232308;204;152519;-57
2024/04/15 10:43:32;;;;;;;5.50;2.50;;;;;;;14.09;66.49;98364.19;232223;203;136758;-56
2024/04/15 10:48:35;;;;;;;5.40;2.50;;;;;;;14.10;66.39;98372.44;232162;203;136838;-58
2024/04/15 10:53:40;;;;;;;5.30;2.30;;;;;;;14.08;66.03;98376.73;232321;201;151362;-58
2024/04/15 10:58:44;;;;;;;5.30;2.30;;;;;;;14.06;65.88;98386.00;232137;199;137664;-57
2024/04/15 11:03:48;;;;;;;7.00;2.90;;;;;;;14.05;65.54;98377.70;232094;203;139913;-56
2024/04/15 11:08:51;;;;;;;6.70;2.60;;;;;;;14.05;65.81;98381.45;232187;201;151318;-58
2024/04/15 11:13:55;;;;;;;6.80;2.50;;;;;;;14.05;65.91;98379.81;232036;207;137154;-56
2024/04/15 11:19:10;;;;;;;8.00;2.60;;;;;;;14.06;65.39;98381.91;231913;207;137251;-57
2024/04/15 11:24:13;;;;;;;5.60;2.30;;;;;;;14.10;65.14;98374.41;231980;206;153497;-58
2024/04/15 11:29:19;;;;;;;5.50;2.50;;;;;;;14.17;64.96;98355.27;232140;203;137575;-58
2024/04/15 11:34:23;;;;;;;6.90;3.50;;;;;;;14.24;65.28;98342.70;232043;203;136418;-56
2024/04/15 11:39:26;;;;;;;9.00;3.70;;;;;;;14.29;65.46;98342.44;231952;203;151118;-58
2024/04/15 11:44:29;;;;;;;9.20;4.00;;;;;;;14.36;65.57;98332.17;232111;207;136864;-56
2024/04/15 11:49:32;;;;;;;8.30;3.80;;;;;;;14.41;65.68;98327.98;232556;203;137006;-58
2024/04/15 11:54:39;;;;;;;11.30;3.70;;;;;;;14.43;66.03;98311.14;231939;200;151479;-58
2024/04/15 11:59:42;;;;;;;10.50;4.10;;;;;;;14.45;66.38;98295.09;232256;207;137790;-55
2024/04/15 12:04:51;;;;;;;9.70;4.60;;;;;;;14.55;66.91;98292.62;231775;207;137494;-56
2024/04/15 12:09:55;;;;;;;6.90;3.90;;;;;;;14.62;66.20;98282.75;232504;203;151107;-57
2024/04/15 12:14:59;;;;;;;10.80;3.80;;;;;;;14.58;65.74;98276.31;232643;203;137631;-58
2024/04/15 12:20:04;;;;;;;6.90;3.30;;;;;;;14.63;65.73;98264.26;232653;203;137628;-58
2024/04/15 12:25:09;;;;;;;10.00;3.60;;;;;;;14.68;64.35;98253.29;232616;203;152175;-58
2024/04/15 12:30:12;;;;;;;10.80;3.60;;;;;;;14.80;63.97;98241.28;232645;203;137576;-58
2024/04/15 12:35:15;;;;;;;11.90;3.40;;;;;;;14.86;63.61;98237.42;232754;203;139411;-58
2024/04/15 12:40:18;;;;;;;13.50;3.70;;;;;;;14.98;63.89;98232.49;232555;206;151484;-57
2024/04/15 12:45:21;;;;;;;8.40;3.40;;;;;;;14.99;63.67;98220.02;231925;206;137823;-57
2024/04/15 12:50:24;;;;;;;16.50;4.00;;;;;;;15.06;63.85;98222.55;232099;203;136440;-57
2024/04/15 12:55:27;;;;;;;14.30;4.00;;;;;;;15.08;64.04;98222.75;232101;206;152093;-58
2024/04/15 13:00:31;;;;;;;9.70;4.20;;;;;;;15.07;63.51;98210.36;232130;200;137227;-57
2024/04/15 13:05:37;;;;;;;14.80;4.30;;;;;;;15.00;63.81;98197.60;232248;203;137026;-58
2024/04/15 13:10:40;;;;;;;11.00;4.40;;;;;;;15.03;64.23;98196.21;232160;203;151296;-57
2024/04/15 13:15:43;;;;;;;11.50;4.80;;;;;;;15.00;63.97;98188.70;232587;206;139110;-57
2024/04/15 13:20:46;;;;;;;15.40;5.00;;;;;;;14.95;64.40;98174.71;232668;203;137152;-57
2024/04/15 13:25:49;;;;;;;30.80;18.30;;;;;;;14.98;65.01;98165.61;232550;207;152138;-57
2024/04/15 13:30:52;;;;;;;11.60;4.40;;;;;;;15.04;64.88;98153.61;232659;206;137740;-58
2024/04/15 13:35:56;;;;;;;13.10;4.60;;;;;;;15.04;65.01;98129.53;232865;206;138423;-57
2024/04/15 13:40:59;;;;;;;19.90;5.20;;;;;;;15.02;64.83;98110.27;232671;203;150445;-57
2024/04/15 13:46:02;;;;;;;16.20;5.30;;;;;;;15.01;65.23;98129.27;232611;203;137434;-59
2024/04/15 13:51:07;;;;;;;13.90;6.40;;;;;;;15.06;65.30;98137.23;232635;207;137287;-55
2024/04/15 13:56:11;;;;;;;13.50;6.20;;;;;;;15.11;65.23;98127.79;232670;206;152754;-57
2024/04/15 14:01:14;;;;;;;12.30;5.60;;;;;;;15.17;65.02;98131.89;232618;206;137080;-57
2024/04/15 14:06:18;;;;;;;12.60;5.70;;;;;;;15.21;64.88;98137.94;232688;203;137969;-56
2024/04/15 14:11:21;;;;;;;10.60;4.40;;;;;;;15.23;65.02;98121.11;232691;206;151772;-57
2024/04/15 14:16:26;;;;;;;13.10;4.60;;;;;;;15.21;64.90;98117.20;232509;206;137565;-57
2024/04/15 14:21:29;;;;;;;12.60;5.00;;;;;;;15.16;65.03;98113.58;232654;203;139536;-58
2024/04/15 14:26:32;;;;;;;8.90;5.10;;;;;;;15.10;65.08;98113.58;232679;199;151893;-58
2024/04/15 14:31:36;;;;;;;7.30;3.90;;;;;;;15.04;65.99;98114.14;232731;206;137827;-58
2024/04/15 14:36:39;;;;;;;7.80;3.90;;;;;;;14.98;66.38;98107.98;232183;206;138618;-57
2024/04/15 14:41:44;;;;;;;8.80;4.10;;;;;;;14.91;66.59;98107.52;232881;207;151808;-56
2024/04/15 14:46:48;;;;;;;6.60;3.30;;;;;;;14.88;66.86;98106.03;232648;204;137495;-57
2024/04/15 14:51:55;;;;;;;9.10;4.00;;;;;;;14.87;67.14;98096.61;232447;206;137739;-58
2024/04/15 14:57:00;;;;;;;6.90;4.00;;;;;;;14.90;67.30;98067.23;232587;206;151769;-57
2024/04/15 15:02:05;;;;;;;10.30;5.20;;;;;;;14.91;67.32;98054.15;232624;204;136718;-57
2024/04/15 15:07:08;;;;;;;8.20;4.50;;;;;;;14.94;67.58;98013.00;232631;204;137530;-56
2024/04/15 15:12:11;;;;;;;10.50;4.70;;;;;;;14.98;67.29;98029.87;232539;207;151783;-55
2024/04/15 15:17:14;;;;;;;10.10;5.30;;;;;;;14.94;67.24;98011.39;232889;203;137649;-58
2024/04/15 15:22:17;;;;;;;13.20;6.00;;;;;;;14.89;67.08;97989.70;232737;206;136995;-59
2024/04/15 15:27:20;;;;;;;12.20;5.20;;;;;;;14.80;67.18;97994.85;232656;203;151321;-58
2024/04/15 15:32:24;;;;;;;12.10;5.20;;;;;;;14.77;67.70;97990.83;232743;206;137833;-59
2024/04/15 15:37:26;;;;;;;15.60;6.50;;;;;;;14.78;68.03;98003.90;232678;202;138713;-62
2024/04/15 15:42:30;;;;;;;13.20;7.10;;;;;;;14.78;67.87;98009.48;232693;206;152637;-62
2024/04/15 15:47:33;;;;;;;13.30;8.50;;;;;;;14.74;68.08;98036.42;232759;202;137178;-62
2024/04/15 15:52:36;;;;;;;13.00;7.20;;;;;;;14.68;68.31;98026.12;232730;206;137354;-61
2024/04/15 15:57:39;;;;;;;14.60;6.70;;;;;;;14.64;68.53;98017.27;232697;203;152404;-61
2024/04/15 16:02:42;;;;;;;10.70;6.00;;;;;;;14.56;68.68;98019.33;232548;207;140492;-61
2024/04/15 16:07:55;;;;;;;13.90;6.30;;;;;;;14.48;68.91;98018.57;232579;206;137766;-60
2024/04/15 16:12:58;;;;;;;14.40;5.90;;;;;;;14.43;68.95;97990.67;232640;203;151386;-61
2024/04/15 16:18:01;;;;;;;9.60;5.50;;;;;;;14.42;69.17;97969.66;232770;204;137841;-61
2024/04/15 16:23:06;;;;;;;11.90;7.30;;;;;;;14.49;69.15;97961.17;232679;204;158696;-62
2024/04/15 16:28:09;;;;;;;14.80;8.50;;;;;;;14.56;68.86;97965.91;232604;204;151377;-65
2024/04/15 16:33:12;;;;;;;17.10;10.50;;;;;;;14.56;68.90;97948.58;232582;204;137479;-60
2024/04/15 16:38:15;;;;;;;14.90;9.20;;;;;;;14.53;68.64;97935.88;232764;206;137677;-66
2024/04/15 16:43:18;;;;;;;13.80;5.90;;;;;;;14.49;68.49;97929.79;232602;206;152320;-60
2024/04/15 16:48:21;;;;;;;9.20;5.20;;;;;;;14.45;68.48;97936.21;232675;206;138433;-60
2024/04/15 16:53:23;;;;;;;7.90;3.90;;;;;;;14.40;68.30;97897.23;232846;203;138738;-60
2024/04/15 16:58:27;;;;;;;9.60;4.50;;;;;;;14.34;68.48;97901.55;232640;203;151952;-61
2024/04/15 17:03:30;;;;;;;9.50;3.60;;;;;;;14.26;68.35;97884.73;232627;203;137703;-61
2024/04/15 17:08:33;;;;;;;12.60;4.10;;;;;;;14.23;68.61;97891.77;232645;207;139837;-62
2024/04/15 17:13:36;;;;;;;12.50;4.30;;;;;;;14.27;68.91;97883.52;232620;203;151307;-60
2024/04/15 17:18:39;;;;;;;15.00;4.50;;;;;;;14.35;68.60;97898.04;232646;206;137520;-60
2024/04/15 17:23:42;;;;;;;10.80;4.40;;;;;;;14.37;68.38;97872.94;232844;203;138209;-59
2024/04/15 17:28:45;;;;;;;9.00;4.20;;;;;;;14.34;68.56;97873.06;232703;206;151840;-60
2024/04/15 17:33:48;;;;;;;11.10;4.70;;;;;;;14.31;68.64;97865.59;232582;206;137930;-61
2024/04/15 17:38:54;;;;;;;7.80;4.10;;;;;;;14.28;68.62;97857.70;232663;206;137017;-61
2024/04/15 17:43:57;;;;;;;10.90;4.30;;;;;;;14.28;68.90;97866.84;232610;203;151627;-65
2024/04/15 17:49:00;;;;;;;8.30;4.70;;;;;;;14.21;69.07;97855.16;232717;206;137152;-60
2024/04/15 17:54:04;;;;;;;10.90;4.50;;;;;;;14.16;69.30;97830.89;232848;203;136700;-60
2024/04/15 17:59:10;;;;;;;14.20;5.10;;;;;;;14.16;69.40;97816.92;232615;202;151479;-61
2024/04/15 18:04:13;;;;;;;9.30;5.90;;;;;;;14.24;69.44;97826.40;232670;206;138018;-61
2024/04/15 18:09:17;;;;;;;12.50;5.60;;;;;;;14.22;69.45;97828.15;232640;195;139817;-62
2024/04/15 18:14:21;;;;;;;714.90;547.50;;;;;;;14.20;69.75;97803.38;232601;206;151382;-60
2024/04/15 18:19:24;;;;;;;18.80;11.50;;;;;;;14.25;70.19;97783.06;232626;202;138122;-61
2024/04/15 18:24:28;;;;;;;20.00;7.40;;;;;;;14.22;69.78;97815.81;232662;206;136994;-62
2024/04/15 18:29:31;;;;;;;19.00;7.40;;;;;;;14.20;69.89;97813.20;232771;204;151874;-62
2024/04/15 18:34:34;;;;;;;11.10;6.00;;;;;;;14.12;70.10;97799.66;232535;206;136632;-60
2024/04/15 18:39:37;;;;;;;13.50;5.90;;;;;;;14.11;70.32;97784.30;232664;206;138185;-61
2024/04/15 18:44:42;;;;;;;10.50;6.70;;;;;;;14.17;70.34;97784.80;232595;203;151922;-61
2024/04/15 18:49:45;;;;;;;207.60;160.30;;;;;;;14.08;70.40;97787.38;232598;203;136736;-61
2024/04/15 18:54:47;;;;;;;237.20;179.50;;;;;;;14.08;71.12;97771.05;232644;206;139561;-60
2024/04/15 18:59:50;;;;;;;20.00;9.90;;;;;;;14.17;71.38;97755.88;232773;206;151926;-60
2024/04/15 19:04:54;;;;;;;24.20;13.50;;;;;;;14.22;71.06;97750.05;232633;206;137545;-60
2024/04/15 19:09:57;;;;;;;49.30;27.00;;;;;;;14.12;70.97;97744.35;232691;207;138493;-59
2024/04/15 19:15:00;;;;;;;15.80;7.20;;;;;;;14.12;71.34;97743.80;232556;206;151494;-60
2024/04/15 19:20:17;;;;;;;14.70;7.50;;;;;;;14.14;71.42;97735.41;232707;203;137761;-61
2024/04/15 19:25:21;;;;;;;15.40;8.10;;;;;;;14.18;71.38;97723.82;232770;203;137379;-60
2024/04/15 19:30:24;;;;;;;28.10;19.90;;;;;;;14.17;71.25;97730.17;232733;206;153084;-60
2024/04/15 19:35:28;;;;;;;73.60;57.50;;;;;;;14.21;71.53;97716.92;232881;203;138198;-61
2024/04/15 19:40:31;;;;;;;20.10;9.20;;;;;;;14.26;71.44;97714.44;232694;203;139888;-60
2024/04/15 19:45:36;;;;;;;18.00;8.90;;;;;;;14.20;71.39;97720.60;232652;203;151440;-62
2024/04/15 19:50:40;;;;;;;12.50;8.80;;;;;;;14.13;71.50;97727.51;232743;203;136923;-60
2024/04/15 19:55:43;;;;;;;11.00;7.50;;;;;;;14.09;71.57;97717.45;232701;203;139079;-60
2024/04/15 20:00:46;;;;;;;16.80;8.00;;;;;;;14.07;71.52;97725.23;232674;206;151861;-60
2024/04/15 20:05:49;;;;;;;15.40;8.60;;;;;;;14.14;71.85;97699.76;232904;206;138247;-60
2024/04/15 20:10:52;;;;;;;14.90;9.20;;;;;;;14.25;71.46;97692.48;232718;203;138991;-60
2024/04/15 20:15:56;;;;;;;20.70;9.40;;;;;;;14.17;71.35;97672.70;232723;206;151278;-60
2024/04/15 20:21:02;;;;;;;19.70;10.30;;;;;;;14.04;71.66;97657.95;232700;203;138774;-60
2024/04/15 20:26:07;;;;;;;15.40;9.70;;;;;;;13.93;72.01;97663.79;232725;206;137522;-60
2024/04/15 20:31:10;;;;;;;20.80;10.10;;;;;;;13.92;72.42;97651.46;232735;203;151365;-60
2024/04/15 20:36:13;;;;;;;17.40;9.40;;;;;;;13.96;72.31;97643.05;232658;203;137981;-61
2024/04/15 20:41:16;;;;;;;17.40;10.00;;;;;;;13.98;72.26;97632.94;232899;206;139564;-61
2024/04/15 20:46:19;;;;;;;18.60;10.90;;;;;;;13.97;72.33;97624.76;232393;206;151587;-60
2024/04/15 20:51:22;;;;;;;20.40;12.00;;;;;;;14.01;72.42;97621.54;232641;206;137331;-60
2024/04/15 20:56:25;;;;;;;20.20;13.70;;;;;;;14.05;72.62;97610.48;232707;203;137810;-60
2024/04/15 21:01:28;;;;;;;20.10;13.30;;;;;;;14.07;72.41;97610.61;232611;206;151400;-62
2024/04/15 21:06:32;;;;;;;18.70;14.00;;;;;;;14.00;72.55;97614.64;232467;204;138192;-62
2024/04/15 21:11:34;;;;;;;20.20;12.80;;;;;;;13.98;72.78;97619.36;232502;207;138334;-61
2024/04/15 21:16:38;;;;;;;21.20;14.40;;;;;;;13.85;72.91;97605.63;232304;202;151058;-59
2024/04/15 21:21:41;;;;;;;33.40;16.80;;;;;;;13.91;73.42;97582.55;232297;204;141066;-60
2024/04/15 21:26:45;;;;;;;23.60;16.30;;;;;;;14.00;73.16;97622.52;232330;199;137288;-59
2024/04/15 21:31:48;;;;;;;29.30;18.10;;;;;;;14.04;72.95;97629.59;232383;203;154428;-62
2024/04/15 21:36:51;;;;;;;31.90;22.60;;;;;;;14.02;72.95;97626.83;232325;207;137362;-61
2024/04/15 21:41:54;;;;;;;32.60;23.20;;;;;;;14.00;73.11;97607.73;232425;203;137580;-59
2024/04/15 21:46:57;;;;;;;32.20;21.40;;;;;;;13.92;73.36;97589.28;232213;205;151106;-60
2024/04/15 21:52:00;;;;;;;34.40;21.60;;;;;;;13.91;73.81;97584.20;232307;203;138677;-60
2024/04/15 21:57:03;;;;;;;30.80;23.00;;;;;;;13.97;73.81;97564.13;232510;202;138259;-60
2024/04/15 22:02:06;;;;;;;31.00;22.80;;;;;;;14.04;73.70;97535.14;232421;202;152248;-60
2024/04/15 22:07:09;;;;;;;32.40;23.50;;;;;;;14.02;73.78;97516.39;232395;206;139983;-60
2024/04/15 22:12:12;;;;;;;30.70;23.70;;;;;;;14.05;73.83;97506.83;232408;203;139042;-60
2024/04/15 22:17:15;;;;;;;35.70;25.10;;;;;;;14.02;73.95;97512.08;232615;202;151178;-60
2024/04/15 22:22:18;;;;;;;30.90;22.20;;;;;;;14.00;74.19;97450.84;232376;202;137888;-60
2024/04/15 22:27:22;;;;;;;35.60;24.40;;;;;;;13.94;74.36;97439.39;232475;203;138669;-60
2024/04/15 22:32:25;;;;;;;33.70;23.40;;;;;;;13.95;74.50;97459.13;232425;206;151793;-60
2024/04/15 22:37:28;;;;;;;36.00;25.20;;;;;;;13.89;74.59;97477.00;232455;203;138476;-62
2024/04/15 22:42:32;;;;;;;36.00;24.20;;;;;;;13.81;74.89;97471.59;232410;203;139780;-62
2024/04/15 22:47:35;;;;;;;39.80;26.00;;;;;;;13.74;75.00;97464.48;232637;203;152199;-61
2024/04/15 22:52:38;;;;;;;36.90;25.00;;;;;;;13.68;75.20;97459.38;232508;202;137602;-62
2024/04/15 22:57:41;;;;;;;40.90;24.20;;;;;;;13.62;75.40;97454.84;232506;203;136976;-63
2024/04/15 23:02:45;;;;;;;39.20;24.50;;;;;;;13.59;75.71;97449.44;232589;206;151134;-62
2024/04/15 23:07:48;;;;;;;39.30;26.70;;;;;;;13.60;75.93;97430.95;232557;206;138762;-63
2024/04/15 23:12:51;;;;;;;36.80;25.30;;;;;;;13.65;75.98;97424.43;232528;206;138836;-62
2024/04/15 23:17:54;;;;;;;38.80;26.30;;;;;;;13.66;75.95;97423.55;232627;203;152551;-63